Time;durP1;ratioP1;P1;durP2;ratioP2;P2;SDS_P1;SDS_P2;PMS_P1;PMS_P2;Temp;Humidity;BMP_temperature;BMP_pressure;BME280_temperature;BME280_humidity;BME280_pressure;Samples;Min_cycle;Max_cycle;Signal;HPM_P1;HPM_P2
2021/12/08 00:00:03;;;;;;;;;;;7.40;91.90;;;;;;5062200;28;19958;-61
2021/12/08 00:02:28;;;;;;;;;;;7.40;91.90;;;;;;5061524;28;19951;-60
2021/12/08 00:04:54;;;;;;;;;;;7.40;91.90;;;;;;5046490;28;19997;-61
2021/12/08 00:07:19;;;;;;;;;;;7.40;91.80;;;;;;5047741;28;19909;-61
2021/12/08 00:10:00;;;;;;;;;;;7.40;91.90;;;;;;5046600;28;19913;-61
2021/12/08 00:15:10;;;;;;;;;;;7.40;91.90;;;;;;5062073;28;19915;-60
2021/12/08 00:17:36;;;;;;;;;;;7.30;91.90;;;;;;5063409;28;19908;-61
2021/12/08 00:20:04;;;;;;;;;;;7.30;91.90;;;;;;5057231;28;20441;-61
2021/12/08 00:22:29;;;;;;;;;;;7.30;91.90;;;;;;5061688;28;20367;-60
2021/12/08 00:24:55;;;;;;;;;;;7.20;91.90;;;;;;5045331;28;19920;-61
2021/12/08 00:27:20;;;;;;;;;;;7.30;92.00;;;;;;5048117;28;19912;-61
2021/12/08 00:29:46;;;;;;;;;;;7.30;92.00;;;;;;5061989;28;19904;-61
2021/12/08 00:32:11;;;;;;;;;;;7.30;91.90;;;;;;5047075;28;20279;-61
2021/12/08 00:34:38;;;;;;;;;;;7.30;92.00;;;;;;5045526;28;19904;-60
2021/12/08 00:37:04;;;;;;;;;;;7.20;91.90;;;;;;5043702;28;19960;-61
2021/12/08 00:39:29;;;;;;;;;;;7.20;91.90;;;;;;5063513;28;20013;-61
2021/12/08 00:41:55;;;;;;;;;;;7.20;91.90;;;;;;5059147;28;19919;-61
2021/12/08 00:44:20;;;;;;;;;;;7.20;91.80;;;;;;5045705;28;19920;-61
2021/12/08 00:46:46;;;;;;;;;;;7.20;91.80;;;;;;5045176;28;20339;-61
2021/12/08 00:49:13;;;;;;;;;;;7.20;91.80;;;;;;5044219;28;19916;-61
2021/12/08 00:51:39;;;;;;;;;;;7.20;91.80;;;;;;5062964;28;19904;-60
2021/12/08 00:54:04;;;;;;;;;;;7.20;91.80;;;;;;5044267;28;20431;-61
2021/12/08 00:56:30;;;;;;;;;;;7.20;91.80;;;;;;5044779;28;19920;-61
2021/12/08 00:58:56;;;;;;;;;;;7.20;91.80;;;;;;5063297;28;19920;-61
2021/12/08 01:01:22;;;;;;;;;;;7.20;91.80;;;;;;5060610;28;19912;-61
2021/12/08 01:03:48;;;;;;;;;;;7.20;91.80;;;;;;5060371;28;19919;-61
2021/12/08 01:06:14;;;;;;;;;;;7.10;91.70;;;;;;5060631;28;19920;-61
2021/12/08 01:08:40;;;;;;;;;;;7.20;91.70;;;;;;5061157;28;20116;-61
2021/12/08 01:11:06;;;;;;;;;;;7.20;91.70;;;;;;5062284;28;19908;-61
2021/12/08 01:13:32;;;;;;;;;;;7.10;91.70;;;;;;5061139;28;20335;-61
2021/12/08 01:15:57;;;;;;;;;;;7.10;91.70;;;;;;5043803;28;19912;-60
2021/12/08 01:18:23;;;;;;;;;;;7.10;91.70;;;;;;5043846;28;20007;-61
2021/12/08 01:20:49;;;;;;;;;;;7.10;92.00;;;;;;5060352;28;19916;-61
2021/12/08 01:23:15;;;;;;;;;;;7.10;91.70;;;;;;5060672;28;19916;-60
2021/12/08 01:25:40;;;;;;;;;;;7.10;91.60;;;;;;5044466;28;20343;-61
2021/12/08 01:28:06;;;;;;;;;;;7.10;91.70;;;;;;5045297;28;19928;-61
2021/12/08 01:30:31;;;;;;;;;;;7.10;91.60;;;;;;5059925;28;20003;-61
2021/12/08 01:32:57;;;;;;;;;;;7.10;91.70;;;;;;5059132;28;19908;-61
2021/12/08 01:35:22;;;;;;;;;;;7.10;91.60;;;;;;5061895;28;20363;-61
2021/12/08 01:37:48;;;;;;;;;;;7.10;91.60;;;;;;5051170;28;19908;-61
2021/12/08 01:40:13;;;;;;;;;;;7.10;91.60;;;;;;5065394;28;19912;-62
2021/12/08 01:42:45;;;;;;;;;;;7.00;91.60;;;;;;5064479;28;19916;-61
2021/12/08 01:48:07;;;;;;;;;;;7.00;91.50;;;;;;5062859;28;20324;-61
2021/12/08 01:50:33;;;;;;;;;;;7.00;91.50;;;;;;5066428;28;19909;-60
2021/12/08 01:52:58;;;;;;;;;;;7.00;91.50;;;;;;5065716;28;19943;-61
2021/12/08 01:55:23;;;;;;;;;;;7.00;91.60;;;;;;5051234;28;19916;-61
2021/12/08 01:57:49;;;;;;;;;;;7.00;91.60;;;;;;5064275;28;19976;-61
2021/12/08 02:00:21;;;;;;;;;;;7.00;91.60;;;;;;5065025;28;20217;-61
2021/12/08 02:02:46;;;;;;;;;;;7.00;91.60;;;;;;5046089;28;19912;-61
2021/12/08 02:05:12;;;;;;;;;;;7.00;91.60;;;;;;5054503;28;19931;-61
2021/12/08 02:07:37;;;;;;;;;;;7.00;91.60;;;;;;5062895;28;19954;-61
2021/12/08 02:10:03;;;;;;;;;;;7.00;91.60;;;;;;5063990;28;20279;-61
2021/12/08 02:12:30;;;;;;;;;;;7.00;91.60;;;;;;5062715;28;19917;-61
2021/12/08 02:14:57;;;;;;;;;;;7.00;91.60;;;;;;5064733;28;19912;-61
2021/12/08 02:17:23;;;;;;;;;;;6.90;91.60;;;;;;5064792;28;19919;-61
2021/12/08 02:19:48;;;;;;;;;;;6.90;91.60;;;;;;5048135;28;19926;-61
2021/12/08 02:22:14;;;;;;;;;;;6.90;91.70;;;;;;5064100;28;20427;-61
2021/12/08 02:24:39;;;;;;;;;;;6.90;91.70;;;;;;5047187;28;19920;-61
2021/12/08 02:27:05;;;;;;;;;;;6.90;91.70;;;;;;5046709;28;19918;-61
2021/12/08 02:29:44;;;;;;;;;;;6.90;91.70;;;;;;5065390;28;19920;-61
2021/12/08 02:32:29;;;;;;;;;;;6.90;91.70;;;;;;5062997;28;19916;-61
2021/12/08 02:48:20;;;;;;;;;;;6.90;91.80;;;;;;5060706;28;19923;-61
2021/12/08 02:50:45;;;;;;;;;;;6.90;91.90;;;;;;5047005;28;19916;-61
2021/12/08 02:53:11;;;;;;;;;;;6.90;91.90;;;;;;5064200;28;19908;-61
2021/12/08 02:55:37;;;;;;;;;;;6.90;91.80;;;;;;5047863;28;19908;-61
2021/12/08 02:58:03;;;;;;;;;;;6.90;91.90;;;;;;5064461;28;19922;-61
2021/12/08 03:00:29;;;;;;;;;;;6.90;91.90;;;;;;5063521;28;19948;-61
2021/12/08 03:02:56;;;;;;;;;;;6.90;92.00;;;;;;5062494;28;19908;-61
2021/12/08 03:05:21;;;;;;;;;;;6.90;92.00;;;;;;5062580;28;19924;-61
2021/12/08 03:07:47;;;;;;;;;;;6.90;92.30;;;;;;5063957;28;19927;-60
2021/12/08 03:10:13;;;;;;;;;;;6.90;92.10;;;;;;5031853;28;19956;-61
2021/12/08 03:12:40;;;;;;;;;;;6.90;92.00;;;;;;5063045;28;19920;-61
2021/12/08 03:15:05;;;;;;;;;;;6.90;92.10;;;;;;5045677;28;20610;-61
2021/12/08 03:17:33;;;;;;;;;;;6.90;92.10;;;;;;5046912;28;19948;-61
2021/12/08 03:19:58;;;;;;;;;;;6.90;92.10;;;;;;5046763;28;19908;-61
2021/12/08 03:22:24;;;;;;;;;;;6.90;92.10;;;;;;5047335;28;19919;-61
2021/12/08 03:24:51;;;;;;;;;;;6.90;92.10;;;;;;5063213;28;19923;-61
2021/12/08 03:27:21;;;;;;;;;;;6.90;92.10;;;;;;5062441;28;20283;-61
2021/12/08 03:29:58;;;;;;;;;;;6.90;92.20;;;;;;5045308;28;19908;-61
2021/12/08 03:32:33;;;;;;;;;;;6.80;92.20;;;;;;5047378;28;19917;-61
2021/12/08 03:34:59;;;;;;;;;;;6.90;92.20;;;;;;5064728;28;19990;-61
2021/12/08 03:37:26;;;;;;;;;;;6.90;92.30;;;;;;5054380;28;20338;-61
2021/12/08 03:39:51;;;;;;;;;;;6.80;92.30;;;;;;5045675;28;20334;-61
2021/12/08 03:42:18;;;;;;;;;;;6.80;92.30;;;;;;5048345;28;19923;-61
2021/12/08 03:44:44;;;;;;;;;;;6.80;92.30;;;;;;5063802;28;19912;-61
2021/12/08 03:47:15;;;;;;;;;;;6.80;92.30;;;;;;5063136;28;19919;-61
2021/12/08 03:49:41;;;;;;;;;;;6.80;92.40;;;;;;5046326;28;19909;-61
2021/12/08 03:52:06;;;;;;;;;;;6.90;92.40;;;;;;5046216;28;19908;-61
2021/12/08 03:54:32;;;;;;;;;;;6.80;92.40;;;;;;5063276;28;20252;-61
2021/12/08 03:56:57;;;;;;;;;;;6.90;92.40;;;;;;5062582;28;19912;-61
2021/12/08 03:59:23;;;;;;;;;;;6.90;92.40;;;;;;5063196;28;20364;-61
2021/12/08 04:01:48;;;;;;;;;;;6.90;92.40;;;;;;5064015;28;19908;-61
2021/12/08 04:04:14;;;;;;;;;;;6.90;92.40;;;;;;5047693;28;19916;-61
2021/12/08 04:06:45;;;;;;;;;;;6.90;92.40;;;;;;5063613;28;19923;-61
2021/12/08 04:09:19;;;;;;;;;;;6.90;92.40;;;;;;5063114;28;19948;-61
2021/12/08 04:11:45;;;;;;;;;;;6.90;92.40;;;;;;5062620;28;19947;-61
2021/12/08 04:14:12;;;;;;;;;;;6.90;92.40;;;;;;5047970;28;19916;-61
2021/12/08 04:16:47;;;;;;;;;;;6.90;92.40;;;;;;5064583;28;20355;-61
2021/12/08 04:19:13;;;;;;;;;;;6.90;92.40;;;;;;5062958;28;20251;-61
2021/12/08 04:21:38;;;;;;;;;;;6.90;92.50;;;;;;5062180;28;20432;-61
2021/12/08 04:24:04;;;;;;;;;;;6.90;92.50;;;;;;5062674;28;19914;-61
2021/12/08 04:26:32;;;;;;;;;;;6.90;92.50;;;;;;5046682;28;19908;-61
2021/12/08 04:28:57;;;;;;;;;;;6.90;92.50;;;;;;5047352;28;20422;-61
2021/12/08 04:31:24;;;;;;;;;;;7.00;92.60;;;;;;5044818;28;19908;-61
2021/12/08 04:33:53;;;;;;;;;;;6.90;92.50;;;;;;5061460;28;19912;-61
2021/12/08 04:36:18;;;;;;;;;;;6.90;92.60;;;;;;5059800;28;19912;-61
2021/12/08 04:38:48;;;;;;;;;;;7.00;92.60;;;;;;5058443;28;19917;-61
2021/12/08 04:41:17;;;;;;;;;;;6.90;92.60;;;;;;5062072;28;19916;-61
2021/12/08 04:43:53;;;;;;;;;;;7.00;92.70;;;;;;5061279;28;19916;-61
2021/12/08 04:46:29;;;;;;;;;;;6.90;92.70;;;;;;5046564;28;20280;-61
2021/12/08 04:51:38;;;;;;;;;;;6.80;92.80;;;;;;5063360;28;20374;-61
2021/12/08 05:02:51;;;;;;;;;;;6.90;92.90;;;;;;5061903;28;20375;-61
2021/12/08 05:05:38;;;;;;;;;;;6.90;92.90;;;;;;5042807;28;19920;-60
2021/12/08 05:08:14;;;;;;;;;;;6.90;92.90;;;;;;5043678;28;19908;-61
2021/12/08 05:10:40;;;;;;;;;;;6.90;93.00;;;;;;5045284;28;19905;-61
2021/12/08 05:13:06;;;;;;;;;;;6.90;93.00;;;;;;5062763;28;19961;-61
2021/12/08 05:15:36;;;;;;;;;;;6.90;93.00;;;;;;5061400;28;19928;-61
2021/12/08 05:18:07;;;;;;;;;;;6.90;93.00;;;;;;5060279;28;19912;-61
2021/12/08 05:20:50;;;;;;;;;;;6.90;93.00;;;;;;5061273;28;19977;-61
2021/12/08 05:23:18;;;;;;;;;;;6.90;93.00;;;;;;5042550;28;19916;-61
2021/12/08 05:25:44;;;;;;;;;;;6.90;93.10;;;;;;5061140;28;19943;-61
2021/12/08 05:28:11;;;;;;;;;;;6.90;93.10;;;;;;5060775;28;20360;-61
2021/12/08 05:30:39;;;;;;;;;;;6.90;93.10;;;;;;5063138;28;19904;-61
2021/12/08 05:33:04;;;;;;;;;;;6.90;93.10;;;;;;5045872;28;20030;-61
2021/12/08 05:35:29;;;;;;;;;;;6.90;93.10;;;;;;5044844;28;19991;-61
2021/12/08 05:37:55;;;;;;;;;;;6.90;93.20;;;;;;5042232;28;19963;-61
2021/12/08 05:40:23;;;;;;;;;;;6.90;93.20;;;;;;5044039;28;19912;-61
2021/12/08 05:42:48;;;;;;;;;;;6.90;93.20;;;;;;5062248;28;19913;-61
2021/12/08 05:45:15;;;;;;;;;;;6.90;93.30;;;;;;5063889;28;19957;-61
2021/12/08 05:47:41;;;;;;;;;;;6.90;93.20;;;;;;5044858;28;19922;-61
2021/12/08 05:50:07;;;;;;;;;;;6.90;93.30;;;;;;5061235;28;19946;-61
2021/12/08 05:52:33;;;;;;;;;;;7.00;93.40;;;;;;5060256;28;19908;-60
2021/12/08 05:54:58;;;;;;;;;;;7.00;93.50;;;;;;5061288;28;19904;-61
2021/12/08 05:57:26;;;;;;;;;;;6.90;93.40;;;;;;5045277;28;20188;-61
2021/12/08 05:59:51;;;;;;;;;;;6.90;93.40;;;;;;5062823;28;20007;-61
2021/12/08 06:02:22;;;;;;;;;;;6.90;93.40;;;;;;5044705;28;19980;-61
2021/12/08 06:04:47;;;;;;;;;;;6.90;93.40;;;;;;5060702;28;19977;-61
2021/12/08 06:07:13;;;;;;;;;;;7.00;93.50;;;;;;5059961;28;19908;-61
2021/12/08 06:09:39;;;;;;;;;;;7.00;93.50;;;;;;5061843;28;19923;-61
2021/12/08 06:12:05;;;;;;;;;;;6.90;93.50;;;;;;5062215;28;19998;-61
2021/12/08 06:14:32;;;;;;;;;;;7.00;93.70;;;;;;5044641;28;20417;-61
2021/12/08 06:16:59;;;;;;;;;;;7.00;93.80;;;;;;5048833;28;19912;-61
2021/12/08 06:19:24;;;;;;;;;;;7.00;93.90;;;;;;5060492;28;20003;-61
2021/12/08 06:21:50;;;;;;;;;;;7.00;94.00;;;;;;5045534;28;20870;-61
2021/12/08 06:24:17;;;;;;;;;;;7.00;93.90;;;;;;5041856;28;19920;-61
2021/12/08 06:26:43;;;;;;;;;;;7.00;93.90;;;;;;5047642;28;19933;-60
2021/12/08 06:29:08;;;;;;;;;;;7.00;94.00;;;;;;5063010;28;20389;-61
2021/12/08 06:31:37;;;;;;;;;;;7.00;94.10;;;;;;5047506;28;20403;-61
2021/12/08 06:34:02;;;;;;;;;;;7.00;94.10;;;;;;5046911;28;20303;-61
2021/12/08 06:36:29;;;;;;;;;;;7.00;94.00;;;;;;5062971;28;19942;-61
2021/12/08 06:38:55;;;;;;;;;;;7.20;94.00;;;;;;5046787;28;19961;-61
2021/12/08 06:41:25;;;;;;;;;;;7.00;94.00;;;;;;5062735;28;19996;-61
2021/12/08 06:43:52;;;;;;;;;;;7.00;94.00;;;;;;5060527;28;19916;-61
2021/12/08 06:46:18;;;;;;;;;;;7.00;94.00;;;;;;5062248;28;19931;-61
2021/12/08 06:48:46;;;;;;;;;;;7.00;94.00;;;;;;5047550;28;19912;-61
2021/12/08 06:51:17;;;;;;;;;;;7.00;93.90;;;;;;5048454;28;19912;-61
2021/12/08 06:53:43;;;;;;;;;;;7.00;94.00;;;;;;5063201;28;20379;-61
2021/12/08 06:56:18;;;;;;;;;;;7.00;94.00;;;;;;5059450;28;19908;-60
2021/12/08 06:58:47;;;;;;;;;;;7.00;94.10;;;;;;5052252;28;20077;-61
2021/12/08 07:04:25;;;;;;;;;;;7.00;94.10;;;;;;5025055;28;19939;-61
2021/12/08 07:07:01;;;;;;;;;;;7.00;94.20;;;;;;5045173;28;19909;-61
2021/12/08 07:09:28;;;;;;;;;;;7.00;94.20;;;;;;5060431;28;19955;-61
2021/12/08 07:11:54;;;;;;;;;;;6.90;94.30;;;;;;5045592;28;20030;-61
2021/12/08 07:14:20;;;;;;;;;;;6.90;94.30;;;;;;5046408;28;19916;-61
2021/12/08 07:16:47;;;;;;;;;;;6.90;94.30;;;;;;5023245;28;19926;-60
2021/12/08 07:19:28;;;;;;;;;;;6.90;94.40;;;;;;5063004;28;19928;-61
2021/12/08 07:21:54;;;;;;;;;;;7.00;94.40;;;;;;5046114;28;19912;-61
2021/12/08 07:24:21;;;;;;;;;;;6.90;94.30;;;;;;5044821;28;20035;-61
2021/12/08 07:26:48;;;;;;;;;;;6.90;94.30;;;;;;5059636;28;19924;-61
2021/12/08 07:29:14;;;;;;;;;;;6.90;94.30;;;;;;5063779;28;19963;-60
2021/12/08 07:31:46;;;;;;;;;;;6.90;94.30;;;;;;5042724;28;19928;-60
2021/12/08 07:34:17;;;;;;;;;;;7.00;94.30;;;;;;5042671;28;20062;-60
2021/12/08 07:36:43;;;;;;;;;;;6.90;94.30;;;;;;5041172;28;20002;-61
2021/12/08 07:39:10;;;;;;;;;;;6.90;94.20;;;;;;5036954;28;19946;-61
2021/12/08 07:41:36;;;;;;;;;;;7.00;94.20;;;;;;5024810;28;19913;-61
2021/12/08 07:44:04;;;;;;;;;;;7.00;94.20;;;;;;5059198;28;19958;-61
2021/12/08 07:46:40;;;;;;;;;;;6.90;94.20;;;;;;5041628;28;19916;-61
2021/12/08 07:49:06;;;;;;;;;;;6.90;94.20;;;;;;5043970;28;19916;-61
2021/12/08 07:51:37;;;;;;;;;;;6.90;94.20;;;;;;5056622;28;20544;-61
2021/12/08 07:54:03;;;;;;;;;;;7.00;94.40;;;;;;5042678;28;20527;-61
2021/12/08 07:56:28;;;;;;;;;;;6.90;94.30;;;;;;5057512;28;19952;-60
2021/12/08 07:58:55;;;;;;;;;;;7.00;94.30;;;;;;5041552;28;19971;-61
2021/12/08 08:01:22;;;;;;;;;;;7.00;94.20;;;;;;5040627;28;20015;-61
2021/12/08 08:03:48;;;;;;;;;;;7.00;94.20;;;;;;5043418;28;19942;-61
2021/12/08 08:06:15;;;;;;;;;;;7.00;94.20;;;;;;5039598;28;20380;-61
2021/12/08 08:08:41;;;;;;;;;;;7.00;94.20;;;;;;5060565;28;20015;-61
2021/12/08 08:11:08;;;;;;;;;;;7.00;94.40;;;;;;5021228;28;20287;-61
2021/12/08 08:13:34;;;;;;;;;;;7.00;94.40;;;;;;5031159;28;19970;-61
2021/12/08 08:16:10;;;;;;;;;;;7.00;94.60;;;;;;5030894;28;20260;-61
2021/12/08 08:18:37;;;;;;;;;;;7.00;94.40;;;;;;5060019;28;19923;-61
2021/12/08 08:21:06;;;;;;;;;;;7.00;94.40;;;;;;5061145;28;20202;-61
2021/12/08 08:23:31;;;;;;;;;;;7.00;94.50;;;;;;5040894;28;19920;-61
2021/12/08 08:25:57;;;;;;;;;;;7.00;94.50;;;;;;5059339;28;20374;-61
2021/12/08 08:28:23;;;;;;;;;;;7.00;94.50;;;;;;5055802;28;19927;-61
2021/12/08 08:30:50;;;;;;;;;;;7.00;94.50;;;;;;5052735;28;21170;-61
2021/12/08 08:33:16;;;;;;;;;;;7.00;94.70;;;;;;5036986;28;19920;-61
2021/12/08 08:35:45;;;;;;;;;;;7.00;94.40;;;;;;5058409;28;19920;-61
2021/12/08 08:38:13;;;;;;;;;;;7.00;94.30;;;;;;5056489;28;19913;-61
2021/12/08 08:40:39;;;;;;;;;;;7.00;94.20;;;;;;5056830;28;20007;-61
2021/12/08 08:43:05;;;;;;;;;;;7.00;94.20;;;;;;5047089;28;20032;-61
2021/12/08 08:45:43;;;;;;;;;;;7.00;94.20;;;;;;5035754;28;20050;-61
2021/12/08 08:48:12;;;;;;;;;;;7.00;94.20;;;;;;5043279;28;20027;-61
2021/12/08 08:50:49;;;;;;;;;;;7.10;94.30;;;;;;5040222;28;20027;-61
2021/12/08 08:53:15;;;;;;;;;;;7.00;94.30;;;;;;5058087;28;20494;-60
2021/12/08 08:55:45;;;;;;;;;;;7.10;94.40;;;;;;5043138;28;19912;-62
2021/12/08 08:58:11;;;;;;;;;;;7.10;94.50;;;;;;5039580;28;20535;-61
2021/12/08 09:01:03;;;;;;;;;;;7.10;94.50;;;;;;5044104;28;20344;-61
2021/12/08 09:03:29;;;;;;;;;;;7.10;94.40;;;;;;5055509;28;19916;-61
2021/12/08 09:06:01;;;;;;;;;;;7.10;94.40;;;;;;5047714;28;21180;-61
2021/12/08 09:08:27;;;;;;;;;;;7.10;94.40;;;;;;5056448;28;19928;-61
2021/12/08 09:10:52;;;;;;;;;;;7.30;94.60;;;;;;5042324;28;20359;-61
2021/12/08 09:13:22;;;;;;;;;;;7.10;94.30;;;;;;5042341;28;19923;-61
2021/12/08 09:15:49;;;;;;;;;;;7.10;94.30;;;;;;5025420;28;19916;-61
2021/12/08 09:18:18;;;;;;;;;;;7.10;94.40;;;;;;5032063;28;19920;-61
2021/12/08 09:20:53;;;;;;;;;;;7.20;94.60;;;;;;5004164;28;19989;-61
2021/12/08 09:23:23;;;;;;;;;;;7.10;94.60;;;;;;5030422;28;19917;-61
2021/12/08 09:25:50;;;;;;;;;;;7.20;94.60;;;;;;5029752;28;20634;-61
2021/12/08 09:28:17;;;;;;;;;;;7.20;94.60;;;;;;5028792;28;19923;-61
2021/12/08 09:30:44;;;;;;;;;;;7.10;94.50;;;;;;5009645;28;20843;-62
2021/12/08 09:33:20;;;;;;;;;;;7.20;94.50;;;;;;5014920;28;21382;-61
2021/12/08 09:35:48;;;;;;;;;;;7.20;94.30;;;;;;5028027;28;19917;-61
2021/12/08 09:38:18;;;;;;;;;;;7.10;94.20;;;;;;5018451;28;19923;-61
2021/12/08 09:40:49;;;;;;;;;;;7.20;94.30;;;;;;5014195;28;19923;-61
2021/12/08 09:43:19;;;;;;;;;;;7.20;94.30;;;;;;5026603;28;20056;-62
2021/12/08 09:45:50;;;;;;;;;;;7.20;94.40;;;;;;5023769;28;20335;-62
2021/12/08 09:48:16;;;;;;;;;;;7.20;94.20;;;;;;5028495;28;19920;-61
2021/12/08 09:50:41;;;;;;;;;;;7.20;94.30;;;;;;5007814;28;19916;-61
2021/12/08 09:53:07;;;;;;;;;;;7.30;94.30;;;;;;5041338;28;20452;-62
2021/12/08 09:55:35;;;;;;;;;;;7.20;94.50;;;;;;5055344;28;20002;-61
2021/12/08 09:58:00;;;;;;;;;;;7.20;94.40;;;;;;5059225;28;19912;-61
2021/12/08 10:00:30;;;;;;;;;;;7.20;94.40;;;;;;5055477;28;20252;-62
2021/12/08 10:02:58;;;;;;;;;;;7.20;94.40;;;;;;5043611;28;19912;-61
2021/12/08 10:05:25;;;;;;;;;;;7.20;94.40;;;;;;5056125;28;19963;-61
2021/12/08 10:07:50;;;;;;;;;;;7.20;94.40;;;;;;5040090;28;21436;-61
2021/12/08 10:10:16;;;;;;;;;;;7.20;94.20;;;;;;5040958;28;19912;-61
2021/12/08 10:12:42;;;;;;;;;;;7.20;94.20;;;;;;5041217;28;19924;-61
2021/12/08 10:15:09;;;;;;;;;;;7.20;94.10;;;;;;5032359;28;19912;-61
2021/12/08 10:17:34;;;;;;;;;;;7.20;94.20;;;;;;5033288;28;20019;-61
2021/12/08 10:20:06;;;;;;;;;;;7.20;94.40;;;;;;5039364;28;20065;-61
2021/12/08 10:22:32;;;;;;;;;;;7.30;94.30;;;;;;5053735;28;19959;-61
2021/12/08 10:25:11;;;;;;;;;;;7.30;94.40;;;;;;5036025;28;20622;-61
2021/12/08 10:27:56;;;;;;;;;;;7.20;94.30;;;;;;5038997;28;20724;-61
2021/12/08 10:30:21;;;;;;;;;;;7.30;94.70;;;;;;5040002;28;19991;-62
2021/12/08 10:32:48;;;;;;;;;;;7.30;94.40;;;;;;5016464;28;19912;-61
2021/12/08 10:35:39;;;;;;;;;;;7.20;94.40;;;;;;5037096;28;19913;-61
2021/12/08 10:38:04;;;;;;;;;;;7.30;94.40;;;;;;5031060;28;19930;-61
2021/12/08 10:40:29;;;;;;;;;;;7.20;94.40;;;;;;5032205;28;20329;-61
2021/12/08 10:42:55;;;;;;;;;;;7.20;94.30;;;;;;5033637;28;20423;-61
2021/12/08 10:45:23;;;;;;;;;;;7.20;94.60;;;;;;5030190;28;19924;-61
2021/12/08 10:47:50;;;;;;;;;;;7.20;94.40;;;;;;5036692;28;19908;-62
2021/12/08 10:56:11;;;;;;;;;;;7.20;94.30;;;;;;5035556;28;20072;-61
2021/12/08 10:58:39;;;;;;;;;;;7.20;94.40;;;;;;5048294;28;20006;-61
2021/12/08 11:01:09;;;;;;;;;;;7.20;94.30;;;;;;5055500;28;19965;-61
2021/12/08 11:03:36;;;;;;;;;;;7.20;94.20;;;;;;5043730;28;19917;-61
2021/12/08 11:06:04;;;;;;;;;;;7.20;94.20;;;;;;5058417;28;19924;-61
2021/12/08 11:08:31;;;;;;;;;;;7.20;94.40;;;;;;5042104;28;20252;-62
2021/12/08 11:11:04;;;;;;;;;;;7.30;94.30;;;;;;5043991;28;19991;-61
2021/12/08 11:13:34;;;;;;;;;;;7.30;94.30;;;;;;5041756;28;19924;-62
2021/12/08 11:16:00;;;;;;;;;;;7.30;94.20;;;;;;5040606;28;19915;-62
2021/12/08 11:18:29;;;;;;;;;;;7.20;94.30;;;;;;5063200;28;19917;-61
2021/12/08 11:21:05;;;;;;;;;;;7.30;94.40;;;;;;5045548;28;19939;-61
2021/12/08 11:23:43;;;;;;;;;;;7.30;94.40;;;;;;5061172;28;19916;-61
2021/12/08 11:26:25;;;;;;;;;;;7.30;94.30;;;;;;5046793;28;19973;-61
2021/12/08 11:29:03;;;;;;;;;;;7.30;94.40;;;;;;5060302;28;19909;-61
2021/12/08 11:31:39;;;;;;;;;;;7.30;94.40;;;;;;5057424;28;20011;-61
2021/12/08 11:34:06;;;;;;;;;;;7.30;94.30;;;;;;5040582;28;19913;-61
2021/12/08 11:36:32;;;;;;;;;;;7.30;94.20;;;;;;5040923;28;20039;-61
2021/12/08 11:38:58;;;;;;;;;;;7.30;94.00;;;;;;5057480;28;19908;-61
2021/12/08 11:41:37;;;;;;;;;;;7.30;94.00;;;;;;5056717;28;19989;-62
2021/12/08 11:44:04;;;;;;;;;;;7.30;94.00;;;;;;5057670;28;19920;-61
2021/12/08 11:46:32;;;;;;;;;;;7.30;94.00;;;;;;5045252;28;19916;-62
2021/12/08 11:49:04;;;;;;;;;;;7.30;94.00;;;;;;5063075;28;19923;-62
2021/12/08 11:51:31;;;;;;;;;;;7.30;94.00;;;;;;5060114;28;19925;-61
2021/12/08 11:53:57;;;;;;;;;;;7.30;94.00;;;;;;5042004;28;19915;-62
2021/12/08 11:56:29;;;;;;;;;;;7.30;94.00;;;;;;5047724;28;19912;-61
2021/12/08 11:58:55;;;;;;;;;;;7.30;94.00;;;;;;5042526;28;20136;-61
2021/12/08 12:01:20;;;;;;;;;;;7.30;93.90;;;;;;5055511;28;19924;-61
2021/12/08 12:03:45;;;;;;;;;;;7.30;93.90;;;;;;5046035;28;19923;-62
2021/12/08 12:06:11;;;;;;;;;;;7.40;94.00;;;;;;5044969;28;19925;-62
2021/12/08 12:08:36;;;;;;;;;;;7.30;93.90;;;;;;5038434;28;20364;-61
2021/12/08 12:11:02;;;;;;;;;;;7.30;93.90;;;;;;5032150;28;19920;-61
2021/12/08 12:13:28;;;;;;;;;;;7.30;93.90;;;;;;5048000;28;19912;-62
2021/12/08 12:15:53;;;;;;;;;;;7.40;94.00;;;;;;5026726;28;19916;-61
2021/12/08 12:18:20;;;;;;;;;;;7.30;94.00;;;;;;5050125;28;19927;-61
2021/12/08 12:20:55;;;;;;;;;;;7.30;94.00;;;;;;5036575;28;19917;-61
2021/12/08 12:23:42;;;;;;;;;;;7.40;93.90;;;;;;5040400;28;20548;-61
2021/12/08 12:26:32;;;;;;;;;;;7.40;93.80;;;;;;5054419;28;20011;-61
2021/12/08 12:29:07;;;;;;;;;;;7.40;93.90;;;;;;5053616;28;19924;-61
2021/12/08 12:31:42;;;;;;;;;;;7.40;93.90;;;;;;5061506;28;19965;-61
2021/12/08 12:34:24;;;;;;;;;;;7.40;93.90;;;;;;5041179;28;19999;-61
2021/12/08 12:36:49;;;;;;;;;;;7.40;94.00;;;;;;5039837;28;19944;-62
2021/12/08 12:39:19;;;;;;;;;;;7.40;93.90;;;;;;5039182;28;19952;-61
2021/12/08 12:41:55;;;;;;;;;;;7.40;94.10;;;;;;5022996;28;20053;-61
2021/12/08 12:44:22;;;;;;;;;;;7.40;94.10;;;;;;5025611;28;19917;-62
2021/12/08 12:47:08;;;;;;;;;;;7.50;94.20;;;;;;5058256;28;20374;-61
2021/12/08 12:49:33;;;;;;;;;;;7.40;94.10;;;;;;5043202;28;19912;-61
2021/12/08 12:51:59;;;;;;;;;;;7.40;94.10;;;;;;5041812;28;19974;-61
2021/12/08 12:54:25;;;;;;;;;;;7.50;94.10;;;;;;5060689;28;20419;-61
2021/12/08 12:56:51;;;;;;;;;;;7.50;94.10;;;;;;5060351;28;19923;-61
2021/12/08 12:59:21;;;;;;;;;;;7.50;94.20;;;;;;5060001;28;19939;-61
2021/12/08 13:01:48;;;;;;;;;;;7.50;94.20;;;;;;5054928;28;20265;-61
2021/12/08 13:04:21;;;;;;;;;;;7.40;94.10;;;;;;5037894;28;19967;-61
2021/12/08 13:06:47;;;;;;;;;;;7.50;94.10;;;;;;5023517;28;19908;-61
2021/12/08 13:09:33;;;;;;;;;;;7.60;94.30;;;;;;5054783;28;20458;-61
2021/12/08 13:12:19;;;;;;;;;;;7.50;94.30;;;;;;5057828;28;19909;-61
2021/12/08 13:14:45;;;;;;;;;;;7.50;94.20;;;;;;5058926;28;19954;-61
2021/12/08 13:17:17;;;;;;;;;;;7.50;94.20;;;;;;5043394;28;19962;-61
2021/12/08 13:19:44;;;;;;;;;;;7.50;94.20;;;;;;5052402;28;19923;-61
2021/12/08 13:22:17;;;;;;;;;;;7.50;94.20;;;;;;5039170;28;19923;-62
2021/12/08 13:24:43;;;;;;;;;;;7.50;94.20;;;;;;5037594;28;20019;-61
2021/12/08 13:27:13;;;;;;;;;;;7.50;94.20;;;;;;5035237;28;19918;-61
2021/12/08 13:29:40;;;;;;;;;;;7.60;94.20;;;;;;5033439;28;20338;-60
2021/12/08 13:32:11;;;;;;;;;;;7.50;94.20;;;;;;5038443;28;19916;-60
2021/12/08 13:34:37;;;;;;;;;;;7.50;94.20;;;;;;5062471;28;20012;-61
2021/12/08 13:37:23;;;;;;;;;;;7.50;94.10;;;;;;5062856;28;19927;-61
2021/12/08 13:39:49;;;;;;;;;;;7.50;94.20;;;;;;5060339;28;20337;-60
2021/12/08 13:42:16;;;;;;;;;;;7.40;94.40;;;;;;5045581;28;19913;-60
2021/12/08 13:44:50;;;;;;;;;;;7.50;94.40;;;;;;5038408;28;19939;-62
2021/12/08 13:47:45;;;;;;;;;;;7.60;94.90;;;;;;5053015;28;19916;-60
2021/12/08 13:50:14;;;;;;;;;;;7.50;94.60;;;;;;5037946;28;19966;-63
2021/12/08 13:52:40;;;;;;;;;;;7.60;94.60;;;;;;5046515;28;19917;-63
2021/12/08 13:55:09;;;;;;;;;;;7.60;94.50;;;;;;5045848;28;19916;-63
2021/12/08 13:57:34;;;;;;;;;;;7.60;94.40;;;;;;5059454;28;19916;-62
2021/12/08 14:00:01;;;;;;;;;;;7.50;94.30;;;;;;5061884;28;19995;-62
2021/12/08 14:02:30;;;;;;;;;;;7.60;94.20;;;;;;5059810;28;19916;-60
2021/12/08 14:04:59;;;;;;;;;;;7.60;94.30;;;;;;5059725;28;19919;-61
2021/12/08 14:07:25;;;;;;;;;;;7.60;94.30;;;;;;5044382;28;20077;-61
2021/12/08 14:09:54;;;;;;;;;;;7.60;94.50;;;;;;5061815;28;20104;-61
2021/12/08 14:12:20;;;;;;;;;;;7.60;94.50;;;;;;5046012;28;20018;-61
2021/12/08 14:14:58;;;;;;;;;;;7.60;94.40;;;;;;5045374;28;19915;-62
2021/12/08 14:17:27;;;;;;;;;;;7.60;94.40;;;;;;5055848;28;19916;-61
2021/12/08 14:19:53;;;;;;;;;;;7.60;94.30;;;;;;5046925;28;19921;-61
2021/12/08 14:22:18;;;;;;;;;;;7.60;94.30;;;;;;5042619;28;19916;-61
2021/12/08 14:24:44;;;;;;;;;;;7.60;94.30;;;;;;5053216;28;19923;-63
2021/12/08 14:27:09;;;;;;;;;;;7.60;94.50;;;;;;5025413;28;19916;-61
2021/12/08 14:29:35;;;;;;;;;;;7.60;94.40;;;;;;5044194;28;19927;-62
2021/12/08 14:32:00;;;;;;;;;;;7.60;94.40;;;;;;5032685;28;20011;-62
2021/12/08 14:34:30;;;;;;;;;;;7.60;94.50;;;;;;5039276;28;19916;-61
2021/12/08 14:36:56;;;;;;;;;;;7.60;94.60;;;;;;5039510;28;19943;-62
2021/12/08 14:39:24;;;;;;;;;;;7.60;94.60;;;;;;5043609;28;20638;-61
2021/12/08 14:41:53;;;;;;;;;;;7.60;94.60;;;;;;5063055;28;19921;-61
2021/12/08 14:44:20;;;;;;;;;;;7.70;94.70;;;;;;5040098;28;20835;-62
2021/12/08 14:46:53;;;;;;;;;;;7.60;94.70;;;;;;5028722;28;19919;-62
2021/12/08 14:49:20;;;;;;;;;;;7.60;94.70;;;;;;5037382;28;19920;-62
2021/12/08 14:51:53;;;;;;;;;;;7.70;94.60;;;;;;5055312;28;20721;-62
2021/12/08 14:54:23;;;;;;;;;;;7.70;94.60;;;;;;5051917;28;19913;-62
2021/12/08 14:57:02;;;;;;;;;;;7.70;94.80;;;;;;5041838;28;20520;-61
2021/12/08 14:59:28;;;;;;;;;;;7.70;94.80;;;;;;5038176;28;19916;-63
2021/12/08 15:01:53;;;;;;;;;;;7.70;94.60;;;;;;5054801;28;19920;-62
2021/12/08 15:04:19;;;;;;;;;;;7.70;94.50;;;;;;5055373;28;20145;-62
2021/12/08 15:06:55;;;;;;;;;;;7.70;94.60;;;;;;5037012;28;20014;-62
2021/12/08 15:09:20;;;;;;;;;;;7.70;94.70;;;;;;5038108;28;19919;-62
2021/12/08 15:11:46;;;;;;;;;;;7.70;94.90;;;;;;5035478;28;19920;-62
2021/12/08 15:14:12;;;;;;;;;;;7.80;94.90;;;;;;5042438;28;20407;-62
2021/12/08 15:16:37;;;;;;;;;;;7.70;94.90;;;;;;5038971;28;20006;-61